createdAt,value
2019-03-23T00:01:15.977Z,102381.14
2019-03-23T00:03:52.612Z,102375.06
2019-03-23T00:06:30.844Z,102382.63
2019-03-23T00:08:58.570Z,102387.14
2019-03-23T00:11:29.821Z,102390.84
2019-03-23T00:14:01.172Z,102387.20
2019-03-23T00:16:33.347Z,102396.23
2019-03-23T00:19:05.129Z,102396.55
2019-03-23T00:21:44.847Z,102397.30
2019-03-23T00:24:19.821Z,102392.84
2019-03-23T00:26:52.326Z,102390.34
2019-03-23T00:29:24.782Z,102393.74
2019-03-23T00:32:05.157Z,102403.17
2019-03-23T00:34:36.806Z,102410.54
2019-03-23T00:37:09.013Z,102417.22
2019-03-23T00:39:44.396Z,102417.09
2019-03-23T00:42:23.526Z,102416.84
2019-03-23T00:45:24.525Z,102416.45
2019-03-23T00:47:55.767Z,102421.31
2019-03-23T00:50:27.090Z,102425.17
2019-03-23T00:53:03.800Z,102426.40
2019-03-23T00:55:35.112Z,102433.70
2019-03-23T00:58:10.979Z,102436.60
2019-03-23T01:00:42.395Z,102437.30
2019-03-23T01:03:13.575Z,102445.94
2019-03-23T01:05:44.960Z,102442.48
2019-03-23T01:08:16.451Z,102448.43
2019-03-23T01:10:47.722Z,102452.84
2019-03-23T01:13:22.328Z,102452.17
2019-03-23T01:16:03.705Z,102455.55
2019-03-23T01:18:34.954Z,102454.69
2019-03-23T01:21:07.338Z,102464.90
2019-03-23T01:23:38.702Z,102459.12
2019-03-23T01:26:10.113Z,102463.75
2019-03-23T01:28:41.497Z,102463.61
2019-03-23T01:31:12.771Z,102467.39
2019-03-23T01:33:44.182Z,102464.80
2019-03-23T01:36:15.929Z,102465.46
2019-03-23T01:38:47.212Z,102464.63
2019-03-23T01:41:18.524Z,102470.86
2019-03-23T01:43:49.783Z,102473.75
2019-03-23T01:46:21.286Z,102480.23
2019-03-23T01:48:52.681Z,102477.30
2019-03-23T01:51:30.783Z,102472.88
2019-03-23T01:54:03.163Z,102479.57
2019-03-23T01:56:36.386Z,102477.72
2019-03-23T01:59:07.854Z,102484.58
2019-03-23T02:01:51.637Z,102483.39
2019-03-23T02:04:24.070Z,102497.61
2019-03-23T02:07:01.337Z,102499.84
2019-03-23T02:09:39.828Z,102497.80
2019-03-23T02:12:12.346Z,102497.10
2019-03-23T02:14:49.571Z,102502.33
2019-03-23T02:17:27.129Z,102507.46
2019-03-23T02:19:58.496Z,102509.52
2019-03-23T02:22:31.388Z,102505.22
2019-03-23T02:25:09.093Z,102508.21
2019-03-23T02:27:55.861Z,102511.69
2019-03-23T02:30:27.184Z,102519.77
2019-03-23T02:32:58.445Z,102520.10
2019-03-23T02:35:36.110Z,102523.14
2019-03-23T02:38:18.497Z,102526.02
2019-03-23T02:40:53.244Z,102519.80
2019-03-23T02:43:36.683Z,102525.76
2019-03-23T02:46:08.152Z,102523.43
2019-03-23T02:48:39.478Z,102534.81
2019-03-23T02:51:16.975Z,102529.88
2019-03-23T02:53:48.527Z,102534.63
2019-03-23T02:56:24.241Z,102531.99
2019-03-23T02:58:59.772Z,102533.59
2019-03-23T03:01:32.116Z,102535.64
2019-03-23T03:04:05.610Z,102538.84
2019-03-23T03:06:40.504Z,102536.53
2019-03-23T03:09:11.887Z,102538.34
2019-03-23T03:11:44.306Z,102543.62
2019-03-23T03:14:15.637Z,102542.42
2019-03-23T03:16:47.004Z,102545.91
2019-03-23T03:19:18.211Z,102553.08
2019-03-23T03:21:53.449Z,102555.73
2019-03-23T03:24:24.940Z,102547.76
2019-03-23T03:26:56.346Z,102547.34
2019-03-23T03:29:27.611Z,102555.08
2019-03-23T03:32:03.033Z,102552.80
2019-03-23T03:34:34.316Z,102555.53
2019-03-23T03:37:05.913Z,102545.37
2019-03-23T03:39:37.068Z,102548.69
2019-03-23T03:42:08.487Z,102550.88
2019-03-23T03:44:39.565Z,102552.63
2019-03-23T03:47:11.141Z,102556.36
2019-03-23T03:49:44.452Z,102557.22
2019-03-23T03:52:23.254Z,102553.62
2019-03-23T03:55:10.780Z,102548.80
2019-03-23T03:57:42.296Z,102556.41
2019-03-23T04:00:18.914Z,102561.55
2019-03-23T04:02:55.689Z,102562.15
2019-03-23T04:05:33.948Z,102556.02
2019-03-23T04:08:11.559Z,102563.45
2019-03-23T04:10:41.385Z,102565.14
2019-03-23T04:13:12.730Z,102559.16
2019-03-23T04:15:43.945Z,102551.60
2019-03-23T04:18:26.486Z,102554.27
2019-03-23T04:20:57.837Z,102558.50
2019-03-23T04:23:29.092Z,102554.81
2019-03-23T04:26:00.474Z,102560.48
2019-03-23T04:28:31.781Z,102558.50
2019-03-23T04:31:06.316Z,102561.44
2019-03-23T04:33:50.878Z,102565.53
2019-03-23T04:36:22.421Z,102565.77
2019-03-23T04:38:54.057Z,102567.73
2019-03-23T04:41:25.491Z,102578.38
2019-03-23T04:43:57.858Z,102574.70
2019-03-23T04:46:29.118Z,102576.09
2019-03-23T04:49:00.463Z,102580.58
2019-03-23T04:51:32.060Z,102584.12
2019-03-23T04:54:03.410Z,102584.47
2019-03-23T04:56:36.725Z,102581.38
2019-03-23T04:59:10.143Z,102580.17
2019-03-23T05:01:41.428Z,102580.22
2019-03-23T05:04:17.148Z,102583.75
2019-03-23T05:06:48.360Z,102589.13
2019-03-23T05:09:41.982Z,102590.53
2019-03-23T05:12:13.407Z,102590.64
2019-03-23T05:14:44.697Z,102585.04
2019-03-23T05:17:16.041Z,102591.42
2019-03-23T05:19:48.753Z,102589.30
2019-03-23T05:22:20.176Z,102597.58
2019-03-23T05:24:51.451Z,102594.12
2019-03-23T05:27:22.810Z,102604.13
2019-03-23T05:30:01.251Z,102603.23
2019-03-23T05:32:42.411Z,102604.58
2019-03-23T05:35:13.947Z,102610.26
2019-03-23T05:37:49.410Z,102602.73
2019-03-23T05:40:24.173Z,102606.98
2019-03-23T05:42:59.502Z,102620.50
2019-03-23T05:45:33.984Z,102621.23
2019-03-23T05:48:05.289Z,102630.77
2019-03-23T05:50:43.852Z,102627.67
2019-03-23T05:53:15.230Z,102634.21
2019-03-23T05:55:46.598Z,102631.13
2019-03-23T05:58:29.125Z,102637.36
2019-03-23T06:01:00.260Z,102643.83
2019-03-23T06:03:40.054Z,102644.53
2019-03-23T06:06:11.421Z,102643.47
2019-03-23T06:08:54.603Z,102640.19
2019-03-23T06:11:23.947Z,102650.41
2019-03-23T06:13:56.350Z,102649.05
2019-03-23T06:16:29.914Z,102651.20
2019-03-23T06:19:01.284Z,102652.83
2019-03-23T06:21:36.947Z,102655.44
2019-03-23T06:24:09.568Z,102653.63
2019-03-23T06:26:40.789Z,102657.17
2019-03-23T06:29:17.816Z,102654.43
2019-03-23T06:31:51.253Z,102651.73
2019-03-23T06:34:24.699Z,102655.59
2019-03-23T06:36:56.229Z,102656.89
2019-03-23T06:39:38.041Z,102658.62
2019-03-23T06:42:10.456Z,102659.41
2019-03-23T06:44:47.329Z,102654.92
2019-03-23T06:47:22.013Z,102659.60
2019-03-23T06:49:53.649Z,102659.05
2019-03-23T06:52:25.057Z,102661.51
2019-03-23T06:54:57.651Z,102656.53
2019-03-23T06:57:29.005Z,102662.02
2019-03-23T07:00:10.365Z,102664.34
2019-03-23T07:02:42.054Z,102668.13
2019-03-23T07:05:16.965Z,102670.56
2019-03-23T07:07:48.364Z,102659.28
2019-03-23T07:10:32.331Z,102668.47
2019-03-23T07:13:09.626Z,102663.67
2019-03-23T07:15:40.917Z,102661.97
2019-03-23T07:18:12.705Z,102668.42
2019-03-23T07:20:47.984Z,102658.22
2019-03-23T07:23:19.359Z,102661.30
2019-03-23T07:25:51.807Z,102655.62
2019-03-23T07:28:23.276Z,102656.85
2019-03-23T07:30:56.157Z,102661.23
2019-03-23T07:33:32.282Z,102673.98
2019-03-23T07:36:03.753Z,102670.23
2019-03-23T07:38:35.810Z,102675.33
2019-03-23T07:41:07.229Z,102676.80
2019-03-23T07:43:44.234Z,102683.20
2019-03-23T07:46:24.538Z,102683.86
2019-03-23T07:48:55.967Z,102690.09
2019-03-23T07:51:27.160Z,102689.03
2019-03-23T07:53:58.787Z,102682.75
2019-03-23T07:56:30.516Z,102679.55
2019-03-23T07:59:13.374Z,102687.80
2019-03-23T08:01:50.034Z,102686.89
2019-03-23T08:04:21.535Z,102688.58
2019-03-23T08:06:54.971Z,102683.95
2019-03-23T08:09:37.700Z,102684.70
2019-03-23T08:12:07.373Z,102680.77
2019-03-23T08:14:45.545Z,102685.03
2019-03-23T08:17:25.917Z,102692.06
2019-03-23T08:20:04.092Z,102677.35
2019-03-23T08:22:37.894Z,102682.05
2019-03-23T08:25:09.222Z,102688.49
2019-03-23T08:27:41.754Z,102691.54
2019-03-23T08:30:13.156Z,102682.22
2019-03-23T08:32:56.629Z,102683.22
2019-03-23T08:35:28.357Z,102691.70
2019-03-23T08:38:08.151Z,102702.55
2019-03-23T08:40:51.737Z,102699.48
2019-03-23T08:43:28.325Z,102699.14
2019-03-23T08:45:59.701Z,102705.65
2019-03-23T08:48:38.198Z,102708.13
2019-03-23T08:51:11.545Z,102696.42
2019-03-23T08:53:43.161Z,102702.89
2019-03-23T08:56:19.482Z,102696.30
2019-03-23T08:59:06.289Z,102700.91
2019-03-23T09:01:38.145Z,102700.27
2019-03-23T09:04:09.976Z,102700.71
2019-03-23T09:06:47.476Z,102699.08
2019-03-23T09:09:18.975Z,102708.52
2019-03-23T09:11:50.791Z,102710.81
2019-03-23T09:14:23.558Z,102712.44
2019-03-23T09:16:56.223Z,102714.53
2019-03-23T09:19:33.430Z,102713.70
2019-03-23T09:22:05.793Z,102714.72
2019-03-23T09:24:50.436Z,102716.50
2019-03-23T09:27:32.359Z,102718.02
2019-03-23T09:30:04.656Z,102719.31
2019-03-23T09:32:36.125Z,102716.01
2019-03-23T09:35:09.497Z,102711.25
2019-03-23T09:37:41.832Z,102712.02
2019-03-23T09:40:13.652Z,102718.00
2019-03-23T09:42:51.579Z,102718.27
2019-03-23T09:45:25.188Z,102719.59
2019-03-23T09:48:08.400Z,102730.22
2019-03-23T09:50:46.822Z,102727.92
2019-03-23T09:53:39.100Z,102730.47
2019-03-23T09:56:10.432Z,102733.95
2019-03-23T09:58:52.368Z,102734.27
2019-03-23T10:01:23.610Z,102737.98
2019-03-23T10:03:54.908Z,102734.09
2019-03-23T10:06:26.403Z,102736.58
2019-03-23T10:08:58.377Z,102737.69
2019-03-23T10:11:31.890Z,102733.11
2019-03-23T10:14:03.331Z,102736.20
2019-03-23T10:16:34.608Z,102740.38
2019-03-23T10:19:06.069Z,102746.69
2019-03-23T10:21:38.641Z,102743.59
2019-03-23T10:24:10.539Z,102744.30
2019-03-23T10:26:41.826Z,102741.89
2019-03-23T10:29:13.538Z,102741.55
2019-03-23T10:31:44.897Z,102737.41
2019-03-23T10:34:16.141Z,102737.91
2019-03-23T10:36:47.451Z,102735.64
2019-03-23T10:39:21.920Z,102736.02
2019-03-23T10:41:53.438Z,102733.57
2019-03-23T10:44:24.843Z,102740.01
2019-03-23T10:46:56.238Z,102745.47
2019-03-23T10:49:27.788Z,102742.30
2019-03-23T10:52:00.850Z,102728.15
2019-03-23T10:54:32.419Z,102734.84
2019-03-23T10:57:10.681Z,102731.95
2019-03-23T10:59:42.124Z,102731.76
2019-03-23T11:02:13.385Z,102726.75
2019-03-23T11:04:44.817Z,102732.89
2019-03-23T11:07:25.032Z,102734.84
2019-03-23T11:09:56.320Z,102734.77
2019-03-23T11:12:27.623Z,102731.52
2019-03-23T11:15:16.794Z,102734.41
2019-03-23T11:17:53.317Z,102738.59
2019-03-23T11:20:24.599Z,102733.61
2019-03-23T11:23:12.617Z,102732.06
2019-03-23T11:25:43.934Z,102732.34
2019-03-23T11:28:15.174Z,102740.12
2019-03-23T11:30:49.023Z,102736.50
2019-03-23T11:33:22.653Z,102733.23
2019-03-23T11:35:58.056Z,102732.70
2019-03-23T11:38:30.937Z,102737.31
2019-03-23T11:41:03.591Z,102736.44
2019-03-23T11:43:55.705Z,102736.30
2019-03-23T11:46:27.258Z,102737.63
2019-03-23T11:49:06.376Z,102741.98
2019-03-23T11:51:40.023Z,102737.22
2019-03-23T11:54:11.512Z,102738.66
2019-03-23T11:56:43.852Z,102744.43
2019-03-23T11:59:15.055Z,102737.22
2019-03-23T12:01:51.671Z,102740.39
2019-03-23T12:04:26.044Z,102748.80
2019-03-23T12:06:58.561Z,102748.09
2019-03-23T12:09:43.074Z,102757.20
2019-03-23T12:12:14.482Z,102753.94
2019-03-23T12:14:45.776Z,102754.30
2019-03-23T12:17:18.912Z,102749.78
2019-03-23T12:19:50.210Z,102747.00
2019-03-23T12:22:23.016Z,102752.81
2019-03-23T12:25:02.698Z,102754.98
2019-03-23T12:27:39.210Z,102749.44
2019-03-23T12:30:12.278Z,102747.92
2019-03-23T12:32:43.595Z,102747.16
2019-03-23T12:35:15.920Z,102747.69
2019-03-23T12:38:16.246Z,102750.86
2019-03-23T12:40:58.969Z,102745.51
2019-03-23T12:43:30.407Z,102753.62
2019-03-23T12:46:08.127Z,102745.78
2019-03-23T12:48:39.956Z,102750.81
2019-03-23T12:51:17.125Z,102751.22
2019-03-23T12:53:55.208Z,102744.28
2019-03-23T12:56:27.325Z,102746.60
2019-03-23T12:59:09.287Z,102736.97
2019-03-23T13:01:41.850Z,102742.03
2019-03-23T13:04:13.691Z,102741.33
2019-03-23T13:06:45.130Z,102751.73
2019-03-23T13:09:18.991Z,102745.09
2019-03-23T13:11:52.625Z,102751.44
2019-03-23T13:14:26.640Z,102742.61
2019-03-23T13:16:59.068Z,102741.67
2019-03-23T13:19:32.654Z,102746.90
2019-03-23T13:22:31.652Z,102750.66
2019-03-23T13:25:03.257Z,102746.37
2019-03-23T13:27:43.660Z,102748.73
2019-03-23T13:30:15.356Z,102747.55
2019-03-23T13:32:51.648Z,102745.91
2019-03-23T13:35:25.022Z,102739.56
2019-03-23T13:38:01.860Z,102740.55
2019-03-23T13:40:36.283Z,102737.07
2019-03-23T13:43:10.210Z,102737.78
2019-03-23T13:45:47.625Z,102733.75
2019-03-23T13:48:24.537Z,102732.30
2019-03-23T13:51:04.126Z,102737.44
2019-03-23T13:53:37.632Z,102733.78
2019-03-23T13:56:08.479Z,102741.56
2019-03-23T13:58:41.245Z,102744.52
2019-03-23T14:01:21.450Z,102738.09
2019-03-23T14:03:53.422Z,102736.67
2019-03-23T14:06:30.156Z,102739.00
2019-03-23T14:09:02.168Z,102734.64
2019-03-23T14:11:38.403Z,102737.14
2019-03-23T14:14:11.477Z,102732.90
2019-03-23T14:16:44.249Z,102736.59
2019-03-23T14:19:27.070Z,102732.14
2019-03-23T14:22:00.499Z,102736.03
2019-03-23T14:24:48.891Z,102736.49
2019-03-23T14:27:20.167Z,102736.59
2019-03-23T14:29:53.483Z,102732.72
2019-03-23T14:32:26.011Z,102733.84
2019-03-23T14:35:03.841Z,102727.08
2019-03-23T14:37:40.378Z,102739.86
2019-03-23T14:40:28.562Z,102728.37
2019-03-23T14:43:05.081Z,102733.95
2019-03-23T14:45:48.612Z,102732.14
2019-03-23T14:48:20.981Z,102739.66
2019-03-23T14:50:54.929Z,102746.44
2019-03-23T14:53:30.757Z,102738.24
2019-03-23T14:56:03.150Z,102749.86
2019-03-23T14:58:34.661Z,102746.44
2019-03-23T15:01:09.453Z,102752.50
2019-03-23T15:03:52.906Z,102751.61
2019-03-23T15:06:24.237Z,102750.56
2019-03-23T15:09:06.742Z,102746.78
2019-03-23T15:11:38.230Z,102743.09
2019-03-23T15:14:09.674Z,102743.73
2019-03-23T15:16:44.915Z,102747.02
2019-03-23T15:19:17.068Z,102746.27
2019-03-23T15:21:50.562Z,102748.61
2019-03-23T15:24:23.209Z,102738.33
2019-03-23T15:26:55.960Z,102746.50
2019-03-23T15:29:27.350Z,102738.73
2019-03-23T15:31:59.163Z,102747.42
2019-03-23T15:34:30.600Z,102738.48
2019-03-23T15:37:02.013Z,102739.53
2019-03-23T15:39:40.511Z,102737.89
2019-03-23T15:42:11.791Z,102736.53
2019-03-23T15:44:45.823Z,102737.78
2019-03-23T15:47:20.465Z,102736.27
2019-03-23T15:49:51.895Z,102740.73
2019-03-23T15:52:25.623Z,102741.23
2019-03-23T15:54:57.875Z,102742.25
2019-03-23T15:57:31.332Z,102741.19
2019-03-23T16:00:05.343Z,102741.66
2019-03-23T16:02:36.717Z,102741.02
2019-03-23T16:05:09.477Z,102745.38
2019-03-23T16:07:42.236Z,102741.72
2019-03-23T16:10:41.390Z,102736.67
2019-03-23T16:13:12.647Z,102733.36
2019-03-23T16:15:44.073Z,102739.05
2019-03-23T16:18:15.774Z,102736.34
2019-03-23T16:20:47.070Z,102738.13
2019-03-23T16:23:22.268Z,102734.95
2019-03-23T16:25:56.087Z,102729.80
2019-03-23T16:28:47.786Z,102728.58
2019-03-23T16:31:19.097Z,102725.21
2019-03-23T16:33:50.518Z,102719.34
2019-03-23T16:36:22.358Z,102721.52
2019-03-23T16:38:55.578Z,102723.50
2019-03-23T16:41:27.816Z,102726.27
2019-03-23T16:44:02.167Z,102724.09
2019-03-23T16:46:35.674Z,102727.59
2019-03-23T16:49:18.772Z,102720.23
2019-03-23T16:51:51.140Z,102725.94
2019-03-23T16:54:22.371Z,102722.61
2019-03-23T16:56:53.714Z,102726.59
2019-03-23T16:59:25.079Z,102723.13
2019-03-23T17:01:57.907Z,102725.34
2019-03-23T17:04:30.159Z,102724.02
2019-03-23T17:07:01.434Z,102723.13
2019-03-23T17:09:33.298Z,102720.92
2019-03-23T17:12:12.144Z,102722.88
2019-03-23T17:14:43.388Z,102724.69
2019-03-23T17:17:18.801Z,102725.12
2019-03-23T17:20:03.447Z,102718.34
2019-03-23T17:22:40.288Z,102724.39
2019-03-23T17:25:11.517Z,102731.29
2019-03-23T17:27:45.091Z,102727.63
2019-03-23T17:30:19.569Z,102730.77
2019-03-23T17:32:50.587Z,102727.03
2019-03-23T17:35:24.163Z,102734.32
2019-03-23T17:37:55.605Z,102738.17
2019-03-23T17:40:32.771Z,102736.66
2019-03-23T17:43:06.203Z,102742.23
2019-03-23T17:45:38.081Z,102742.45
2019-03-23T17:48:09.583Z,102747.53
2019-03-23T17:50:41.812Z,102752.77
2019-03-23T17:53:13.237Z,102747.66
2019-03-23T17:55:46.005Z,102742.98
2019-03-23T17:58:24.622Z,102745.90
2019-03-23T18:01:19.335Z,102752.54
2019-03-23T18:03:52.603Z,102742.45
2019-03-23T18:06:23.913Z,102746.30
2019-03-23T18:08:56.310Z,102743.81
2019-03-23T18:11:33.294Z,102761.79
2019-03-23T18:14:04.734Z,102752.33
2019-03-23T18:16:36.201Z,102755.56
2019-03-23T18:19:20.598Z,102749.32
2019-03-23T18:22:03.151Z,102755.31
2019-03-23T18:24:38.116Z,102765.59
2019-03-23T18:27:09.740Z,102759.50
2019-03-23T18:29:43.026Z,102760.75
2019-03-23T18:32:15.408Z,102762.21
2019-03-23T18:34:47.088Z,102766.13
2019-03-23T18:37:20.908Z,102770.38
2019-03-23T18:40:01.325Z,102761.83
2019-03-23T18:42:34.980Z,102763.50
2019-03-23T18:45:07.436Z,102765.77
2019-03-23T18:47:38.769Z,102764.28
2019-03-23T18:50:17.134Z,102763.06
2019-03-23T18:52:50.383Z,102771.69
2019-03-23T18:55:24.933Z,102771.81
2019-03-23T18:57:57.950Z,102768.65
2019-03-23T19:00:43.292Z,102775.41
2019-03-23T19:03:14.497Z,102772.56
2019-03-23T19:05:50.361Z,102776.36
2019-03-23T19:08:24.948Z,102780.23
2019-03-23T19:10:56.190Z,102776.89
2019-03-23T19:13:37.583Z,102778.25
2019-03-23T19:16:01.073Z,102781.27
2019-03-23T19:18:34.599Z,102777.98
2019-03-23T19:21:11.080Z,102778.11
2019-03-23T19:23:48.580Z,102779.39
2019-03-23T19:26:20.004Z,102778.44
2019-03-23T19:28:53.009Z,102774.58
2019-03-23T19:31:26.393Z,102782.87
2019-03-23T19:34:02.878Z,102782.95
2019-03-23T19:36:34.106Z,102780.11
2019-03-23T19:39:08.820Z,102779.27
2019-03-23T19:41:41.191Z,102779.66
2019-03-23T19:44:15.719Z,102788.41
2019-03-23T19:46:47.304Z,102785.14
2019-03-23T19:49:20.145Z,102782.95
2019-03-23T19:51:51.581Z,102788.41
2019-03-23T19:54:23.858Z,102792.14
2019-03-23T19:57:00.692Z,102794.14
2019-03-23T19:59:39.378Z,102789.76
2019-03-23T20:02:11.190Z,102782.69
2019-03-23T20:04:42.562Z,102790.08
2019-03-23T20:07:14.757Z,102797.94
2019-03-23T20:09:46.028Z,102799.34
2019-03-23T20:12:20.874Z,102797.92
2019-03-23T20:14:52.674Z,102790.59
2019-03-23T20:17:28.072Z,102788.97
2019-03-23T20:20:00.721Z,102793.42
2019-03-23T20:22:34.621Z,102792.19
2019-03-23T20:25:06.875Z,102793.22
2019-03-23T20:27:45.345Z,102793.36
2019-03-23T20:30:22.794Z,102795.03
2019-03-23T20:33:06.050Z,102798.11
2019-03-23T20:35:37.925Z,102797.16
2019-03-23T20:38:09.495Z,102789.48
2019-03-23T20:40:44.007Z,102792.19
2019-03-23T20:43:16.478Z,102792.37
2019-03-23T20:45:48.569Z,102792.54
2019-03-23T20:48:23.645Z,102787.97
2019-03-23T20:50:56.039Z,102790.73
2019-03-23T20:53:38.137Z,102788.79
2019-03-23T20:56:10.758Z,102787.57
2019-03-23T20:58:43.477Z,102785.66
2019-03-23T21:01:14.798Z,102788.14
2019-03-23T21:03:48.254Z,102776.25
2019-03-23T21:06:20.749Z,102783.84
2019-03-23T21:09:08.419Z,102779.41
2019-03-23T21:11:40.302Z,102770.41
2019-03-23T21:14:20.657Z,102769.50
2019-03-23T21:16:56.156Z,102766.42
2019-03-23T21:19:34.991Z,102761.13
2019-03-23T21:22:06.693Z,102760.38
2019-03-23T21:24:38.360Z,102760.27
2019-03-23T21:27:11.889Z,102754.84
2019-03-23T21:29:44.557Z,102750.14
2019-03-23T21:32:35.319Z,102753.19
2019-03-23T21:35:07.687Z,102746.62
2019-03-23T21:37:40.629Z,102750.06
2019-03-23T21:40:17.418Z,102750.45
2019-03-23T21:42:49.809Z,102741.63
2019-03-23T21:45:22.182Z,102747.25
2019-03-23T21:47:55.602Z,102759.09
2019-03-23T21:50:28.764Z,102743.38
2019-03-23T21:53:02.131Z,102740.19
2019-03-23T21:55:36.314Z,102746.56
2019-03-23T21:58:08.563Z,102745.12
2019-03-23T22:00:42.414Z,102743.00
2019-03-23T22:03:16.175Z,102745.38
2019-03-23T22:05:50.373Z,102747.32
2019-03-23T22:08:28.392Z,102746.22
2019-03-23T22:11:01.210Z,102744.38
2019-03-23T22:13:34.216Z,102740.95
2019-03-23T22:16:06.954Z,102746.62
2019-03-23T22:18:39.605Z,102735.61
2019-03-23T22:21:11.381Z,102734.20
2019-03-23T22:23:50.829Z,102733.25
2019-03-23T22:26:34.349Z,102728.94
2019-03-23T22:29:10.509Z,102727.53
2019-03-23T22:31:52.643Z,102731.23
2019-03-23T22:34:27.899Z,102734.39
2019-03-23T22:36:59.156Z,102731.87
2019-03-23T22:39:30.411Z,102737.17
2019-03-23T22:42:01.775Z,102735.74
2019-03-23T22:44:40.259Z,102723.86
2019-03-23T22:47:11.489Z,102730.66
2019-03-23T22:49:48.412Z,102722.45
2019-03-23T22:52:20.013Z,102715.38
2019-03-23T22:54:51.836Z,102713.90
2019-03-23T22:57:23.035Z,102715.36
2019-03-23T22:59:54.739Z,102717.44
2019-03-23T23:02:27.133Z,102707.77
2019-03-23T23:04:59.289Z,102704.26
2019-03-23T23:07:30.695Z,102707.02
2019-03-23T23:10:02.004Z,102703.34
2019-03-23T23:12:33.271Z,102704.95
2019-03-23T23:15:05.881Z,102696.91
2019-03-23T23:17:39.200Z,102704.87
2019-03-23T23:20:12.447Z,102704.69
2019-03-23T23:22:49.975Z,102703.84
2019-03-23T23:25:22.390Z,102702.14
2019-03-23T23:28:03.521Z,102700.42
2019-03-23T23:30:34.758Z,102702.27
2019-03-23T23:33:13.314Z,102697.37
2019-03-23T23:35:45.894Z,102699.12
2019-03-23T23:38:21.195Z,102690.47
2019-03-23T23:40:52.672Z,102692.45
2019-03-23T23:43:47.192Z,102693.03
2019-03-23T23:46:18.728Z,102689.80
2019-03-23T23:49:13.765Z,102692.86
2019-03-23T23:51:50.061Z,102699.43
2019-03-23T23:54:31.824Z,102698.08
2019-03-23T23:57:03.162Z,102688.20
2019-03-23T23:59:34.335Z,102693.14
